Terminal Aerodrome Forecast
Issued by NWS Jacksonville, FL

Home | Current Version | Previous Version | Text Only | Print | Product List | Glossary On
Versions: 1 2 3 4 5 6 7 8 9 10 11 12 13 14 15 16 17 18
000
FTUS42 KJAX 280523
TAFSSI
TAF
KSSI 280523Z 2806/0106 VRB02KT 6SM BR BKN050
     FM280700 VRB02KT 2SM BR SCT003 BKN010
     FM280800 00000KT 1/2SM FG BKN003
     FM280930 00000KT 1/4SM FG VV002
     FM281330 VRB02KT 2SM BR BKN007
     FM281430 14007KT 5SM BR SCT010 BKN035
     FM281700 14008KT P6SM BKN040
     FM010400 16005KT 4SM BR SCT003 BKN010=

USA.gov is the U.S. government's official web portal to all federal, state and local government web resources and services.